Time;durP1;ratioP1;P1;durP2;ratioP2;P2;SDS_P1;SDS_P2;PMS_P1;PMS_P2;Temp;Humidity;BMP_temperature;BMP_pressure;BME280_temperature;BME280_humidity;BME280_pressure;Samples;Min_cycle;Max_cycle;Signal;HPM_P1;HPM_P2
2021/08/13 00:02:00;;;;;;;12.45;9.52;;;;;;;19.96;73.65;97476.56;5004507;28;20129;-67
2021/08/13 00:04:27;;;;;;;10.93;9.57;;;;;;;20.22;73.85;97520.03;5004914;28;20444;-67
2021/08/13 00:06:53;;;;;;;9.70;8.52;;;;;;;20.16;73.93;97516.91;5005442;28;20054;-68
2021/08/13 00:09:23;;;;;;;10.45;9.35;;;;;;;20.14;73.91;97522.13;5005286;28;20072;-67
2021/08/13 00:11:50;;;;;;;9.90;8.90;;;;;;;20.02;74.28;97524.69;5005043;28;20060;-69
2021/08/13 00:14:17;;;;;;;12.27;9.18;;;;;;;19.70;74.75;97480.06;5003443;28;20057;-70
2021/08/13 00:16:44;;;;;;;10.63;9.57;;;;;;;20.04;74.56;97508.19;5004605;28;20137;-70
2021/08/13 00:19:11;;;;;;;10.82;9.63;;;;;;;20.10;74.60;97504.50;5003159;28;20065;-69
2021/08/13 00:21:37;;;;;;;12.45;9.07;;;;;;;19.95;74.68;97494.63;5003438;28;20487;-69
2021/08/13 00:24:04;;;;;;;11.48;9.57;;;;;;;19.53;75.50;97448.16;5004865;28;20057;-69
2021/08/13 00:26:31;;;;;;;10.23;9.23;;;;;;;19.77;75.90;97494.06;5002867;28;20436;-68
2021/08/13 00:28:57;;;;;;;10.48;8.48;;;;;;;19.87;76.04;97509.22;5004574;28;20056;-70
2021/08/13 00:31:24;;;;;;;11.10;10.00;;;;;;;19.42;76.12;97433.44;5002664;28;20063;-70
2021/08/13 00:33:51;;;;;;;10.20;9.23;;;;;;;19.89;75.89;97507.56;5004050;28;20058;-70
2021/08/13 00:36:18;;;;;;;10.40;9.00;;;;;;;19.50;75.85;97468.66;5002266;28;20462;-69
2021/08/13 00:38:45;;;;;;;12.57;9.68;;;;;;;19.80;76.08;97486.78;5003167;28;20425;-69
2021/08/13 00:41:11;;;;;;;11.00;9.55;;;;;;;19.38;76.83;97455.13;5004009;28;20054;-68
2021/08/13 00:43:38;;;;;;;11.38;9.35;;;;;;;18.62;77.46;97350.78;5004467;28;20045;-69
2021/08/13 00:46:05;;;;;;;11.50;9.80;;;;;;;19.42;77.67;97480.41;5002591;28;20065;-69
2021/08/13 00:48:32;;;;;;;12.20;9.10;;;;;;;19.30;78.16;97466.88;5002526;28;20057;-69
2021/08/13 00:50:59;;;;;;;10.82;9.50;;;;;;;19.30;77.24;97459.25;5003713;28;20042;-69
2021/08/13 00:53:26;;;;;;;12.32;9.45;;;;;;;19.17;77.64;97432.84;5004026;28;20054;-69
2021/08/13 00:55:53;;;;;;;10.68;9.20;;;;;;;19.50;78.16;97505.22;5002298;28;20053;-69
2021/08/13 00:58:20;;;;;;;11.90;10.70;;;;;;;18.82;78.11;97393.91;5003074;28;20735;-68
2021/08/13 01:00:50;;;;;;;11.90;9.68;;;;;;;19.55;78.04;97499.09;5002416;28;20276;-69
2021/08/13 01:03:18;;;;;;;10.77;9.60;;;;;;;19.60;77.77;97511.91;5002563;28;20161;-69
2021/08/13 01:05:46;;;;;;;11.00;9.35;;;;;;;19.36;77.65;97468.81;5003694;28;20053;-69
2021/08/13 01:08:12;;;;;;;10.38;9.38;;;;;;;19.72;77.00;97507.75;5003907;28;20054;-68
2021/08/13 01:10:57;;;;;;;13.35;9.32;;;;;;;19.45;77.02;97471.13;5001966;28;20050;-69
2021/08/13 01:13:34;;;;;;;12.20;9.98;;;;;;;19.53;78.08;97512.00;5003795;28;20062;-66
2021/08/13 01:16:03;;;;;;;11.25;10.13;;;;;;;19.24;78.30;97460.88;5003889;28;20504;-66
2021/08/13 01:18:35;;;;;;;16.00;10.00;;;;;;;19.02;78.42;97419.38;5002268;28;20060;-69
2021/08/13 01:21:29;;;;;;;13.07;10.13;;;;;;;19.62;78.05;97500.25;5002123;28;20077;-68
2021/08/13 01:24:04;;;;;;;12.02;10.18;;;;;;;19.50;78.26;97508.00;5002575;28;20064;-69
2021/08/13 01:26:38;;;;;;;11.88;10.40;;;;;;;19.41;78.53;97504.88;5001925;28;20058;-70
2021/08/13 01:29:31;;;;;;;;;;;;;;;19.33;78.91;97508.97;5002636;28;20459;-67
2021/08/13 01:32:13;;;;;;;10.77;9.50;;;;;;;19.26;79.16;97509.03;4987229;28;19932;-70
2021/08/13 01:34:44;;;;;;;11.90;10.38;;;;;;;19.42;78.50;97503.69;5002054;28;20080;-67
2021/08/13 01:37:15;;;;;;;12.82;10.10;;;;;;;18.94;77.89;97434.69;5002010;28;20640;-67
2021/08/13 01:39:43;;;;;;;13.38;9.90;;;;;;;18.76;78.20;97403.97;5003626;28;20422;-68
2021/08/13 01:42:10;;;;;;;10.70;9.60;;;;;;;19.53;78.04;97512.81;5003413;28;20061;-67
2021/08/13 01:44:40;;;;;;;11.27;9.60;;;;;;;19.50;78.14;97513.63;5001896;28;20056;-67
2021/08/13 01:47:06;;;;;;;12.45;10.30;;;;;;;19.51;78.16;97523.66;5001969;28;20050;-67
2021/08/13 01:49:34;;;;;;;14.80;9.85;;;;;;;19.20;78.89;97499.47;5003445;28;20062;-67
2021/08/13 01:52:03;;;;;;;10.85;9.38;;;;;;;19.36;79.10;97522.19;5003917;28;20504;-66
2021/08/13 01:54:31;;;;;;;13.27;9.65;;;;;;;19.25;78.90;97496.19;5003665;28;20061;-67
2021/08/13 01:56:58;;;;;;;10.90;9.75;;;;;;;19.15;79.36;97497.09;5002127;28;20093;-66
2021/08/13 01:59:25;;;;;;;11.35;10.15;;;;;;;19.37;79.05;97526.59;5003403;28;20058;-67
2021/08/13 02:01:53;;;;;;;14.02;10.88;;;;;;;19.14;78.65;97483.47;5001858;28;20145;-67
2021/08/13 02:04:20;;;;;;;11.93;10.02;;;;;;;19.10;78.90;97477.88;5003341;28;20057;-69
2021/08/13 02:06:48;;;;;;;11.75;9.90;;;;;;;19.26;78.84;97503.41;5001439;28;20537;-68
2021/08/13 02:09:16;;;;;;;12.25;10.57;;;;;;;19.29;79.05;97530.69;5002559;28;20081;-68
2021/08/13 02:11:44;;;;;;;11.93;10.73;;;;;;;19.11;78.78;97481.50;5003005;28;20052;-68
2021/08/13 02:14:11;;;;;;;11.20;10.00;;;;;;;18.84;78.44;97442.00;5001858;28;20076;-69
2021/08/13 02:16:41;;;;;;;17.50;11.10;;;;;;;18.95;78.55;97470.00;5001660;28;20053;-68
2021/08/13 02:19:24;;;;;;;12.90;10.07;;;;;;;19.25;78.74;97534.72;5005580;28;20460;-68
2021/08/13 02:21:51;;;;;;;11.00;9.98;;;;;;;19.12;79.47;97534.44;5005078;28;20058;-69
2021/08/13 02:24:18;;;;;;;11.15;10.05;;;;;;;19.03;79.87;97528.47;5005246;28;20050;-68
2021/08/13 02:26:46;;;;;;;11.60;10.20;;;;;;;18.94;79.95;97513.31;5005051;28;20062;-69
2021/08/13 02:29:13;;;;;;;13.73;10.75;;;;;;;18.94;80.05;97514.13;5007204;28;20085;-67
2021/08/13 02:31:40;;;;;;;11.02;9.93;;;;;;;18.98;80.21;97531.75;5004976;28;20057;-69
2021/08/13 02:34:06;;;;;;;11.90;10.40;;;;;;;18.53;80.96;97487.97;5004782;28;20050;-68
2021/08/13 02:36:44;;;;;;;11.85;10.52;;;;;;;18.88;81.09;97540.25;5004892;28;20053;-69
2021/08/13 02:39:37;;;;;;;11.55;10.43;;;;;;;18.87;81.23;97530.22;5005251;28;20053;-68
2021/08/13 02:42:06;;;;;;;12.27;10.85;;;;;;;18.91;80.76;97540.22;5005318;28;20053;-66
2021/08/13 02:44:35;;;;;;;11.75;10.55;;;;;;;18.72;80.21;97484.63;5006117;28;20053;-68
2021/08/13 02:47:06;;;;;;;13.00;10.95;;;;;;;19.06;79.91;97533.25;5006218;28;20321;-67
2021/08/13 02:49:35;;;;;;;11.43;10.25;;;;;;;19.03;79.72;97528.47;5004762;28;20538;-67
2021/08/13 02:52:07;;;;;;;11.13;9.95;;;;;;;18.81;80.12;97496.16;5006168;28;20481;-69
2021/08/13 02:54:35;;;;;;;11.40;10.20;;;;;;;18.95;80.11;97523.34;5006201;28;20064;-68
2021/08/13 02:57:04;;;;;;;13.15;10.15;;;;;;;18.88;80.56;97521.41;5004535;28;20128;-69
2021/08/13 02:59:33;;;;;;;12.10;10.45;;;;;;;18.88;80.56;97521.41;5004547;28;20054;-67
2021/08/13 03:02:02;;;;;;;13.27;11.13;;;;;;;18.70;81.23;97512.28;5004479;28;20065;-67
2021/08/13 03:04:30;;;;;;;12.68;11.07;;;;;;;18.67;81.60;97515.94;5004663;28;20049;-65
2021/08/13 03:06:59;;;;;;;12.68;10.52;;;;;;;18.56;82.59;97515.22;5006447;28;20089;-67
2021/08/13 03:09:27;;;;;;;14.55;10.73;;;;;;;18.26;82.90;97472.88;5004707;28;20176;-67
2021/08/13 03:11:55;;;;;;;16.48;10.75;;;;;;;18.46;82.44;97515.28;5004028;28;20500;-66
2021/08/13 03:14:22;;;;;;;14.13;11.07;;;;;;;18.49;82.05;97522.88;5006074;28;20062;-71
2021/08/13 03:16:51;;;;;;;13.77;10.93;;;;;;;18.48;81.59;97541.72;5005997;28;20046;-68
2021/08/13 03:19:20;;;;;;;12.40;11.02;;;;;;;16.83;81.99;97256.72;5004737;28;20554;-68
2021/08/13 03:21:47;;;;;;;13.48;10.88;;;;;;;18.52;82.34;97531.28;5004189;28;20057;-68
2021/08/13 03:24:14;;;;;;;12.88;11.05;;;;;;;18.48;82.29;97530.50;5004223;28;20548;-68
2021/08/13 03:26:42;;;;;;;14.35;10.57;;;;;;;18.66;82.01;97525.56;5004056;28;20068;-68
2021/08/13 03:29:09;;;;;;;14.57;11.32;;;;;;;18.81;80.69;97526.28;5004719;28;20057;-68
2021/08/13 03:31:44;;;;;;;12.40;10.85;;;;;;;18.81;80.71;97532.66;5005156;28;20053;-68
2021/08/13 03:34:12;;;;;;;13.48;11.00;;;;;;;18.58;80.29;97467.91;5005258;28;20057;-68
2021/08/13 03:36:41;;;;;;;13.52;11.02;;;;;;;18.44;80.19;97447.56;5003584;28;20060;-68
2021/08/13 03:39:10;;;;;;;13.95;10.77;;;;;;;18.95;80.21;97517.72;5004979;28;20674;-68
2021/08/13 03:41:38;;;;;;;12.90;10.48;;;;;;;19.00;79.88;97518.06;5005074;28;20064;-69
2021/08/13 03:44:05;;;;;;;20.15;11.48;;;;;;;19.06;79.20;97516.41;5003843;28;20066;-68
2021/08/13 03:46:32;;;;;;;14.45;11.45;;;;;;;16.70;78.89;97146.44;5003284;28;20065;-69
2021/08/13 03:48:58;;;;;;;13.32;10.52;;;;;;;19.12;78.78;97522.41;5003464;28;20547;-68
2021/08/13 03:51:25;;;;;;;12.85;10.15;;;;;;;19.06;78.80;97527.66;5002998;28;20524;-67
2021/08/13 03:53:52;;;;;;;11.30;10.02;;;;;;;18.93;78.87;97509.72;5003427;28;20060;-67
2021/08/13 03:56:18;;;;;;;14.10;10.60;;;;;;;19.08;78.70;97530.03;5004957;28;20050;-68
2021/08/13 03:58:45;;;;;;;14.23;10.90;;;;;;;19.15;78.21;97539.22;5003444;28;20062;-68
2021/08/13 04:01:12;;;;;;;15.20;10.43;;;;;;;18.60;78.51;97465.50;5003741;28;20062;-68
2021/08/13 04:03:39;;;;;;;12.35;10.52;;;;;;;18.86;78.47;97495.72;5005210;28;20145;-68
2021/08/13 04:06:05;;;;;;;14.85;10.95;;;;;;;17.03;78.07;97198.22;5002923;28;20530;-67
2021/08/13 04:08:32;;;;;;;18.02;10.50;;;;;;;19.18;78.11;97534.78;5004716;28;20078;-68
2021/08/13 04:10:59;;;;;;;17.65;10.77;;;;;;;19.30;77.58;97537.91;5002653;28;20516;-68
2021/08/13 04:13:26;;;;;;;16.30;10.60;;;;;;;19.38;77.28;97533.81;5004574;28;20483;-68
2021/08/13 04:15:52;;;;;;;11.82;10.15;;;;;;;18.50;77.19;97401.81;5003296;28;20085;-68
2021/08/13 04:18:19;;;;;;;17.98;11.20;;;;;;;19.32;77.45;97529.88;5004934;28;20081;-70
2021/08/13 04:20:46;;;;;;;17.73;10.85;;;;;;;19.60;76.08;97539.22;5002931;28;20065;-69
2021/08/13 04:23:13;;;;;;;15.30;10.77;;;;;;;19.67;75.30;97547.56;5003179;28;20069;-69
2021/08/13 04:25:40;;;;;;;14.57;10.85;;;;;;;19.68;75.54;97546.38;5002719;28;20054;-68
2021/08/13 04:28:06;;;;;;;12.20;10.45;;;;;;;19.83;75.13;97554.22;5002965;28;20152;-68
2021/08/13 04:30:33;;;;;;;14.73;11.65;;;;;;;19.59;74.27;97487.81;5004728;28;20058;-68
2021/08/13 04:33:06;;;;;;;12.40;11.10;;;;;;;20.17;73.40;97545.84;5002873;28;20046;-70
2021/08/13 04:35:33;;;;;;;16.53;10.10;;;;;;;20.26;73.12;97557.38;5003678;28;20692;-68
2021/08/13 04:37:59;;;;;;;16.63;11.00;;;;;;;20.10;73.05;97523.38;5003034;28;20053;-69
2021/08/13 04:40:26;;;;;;;15.40;11.38;;;;;;;19.99;71.60;97477.72;5002359;28;20058;-69
2021/08/13 04:42:53;;;;;;;26.13;11.30;;;;;;;20.71;70.46;97558.75;5003985;28;20532;-67
2021/08/13 04:45:20;;;;;;;185.63;23.23;;;;;;;20.31;69.99;97470.44;5002333;28;20054;-69
2021/08/13 04:47:47;;;;;;;18.88;12.88;;;;;;;20.51;69.89;97510.78;5004243;28;20065;-68
2021/08/13 04:50:14;;;;;;;15.63;10.40;;;;;;;21.02;69.26;97560.31;5002719;28;20538;-68
2021/08/13 04:52:45;;;;;;;16.13;10.70;;;;;;;20.84;68.31;97506.25;5002912;28;20444;-66
2021/08/13 04:55:17;;;;;;;18.50;11.13;;;;;;;20.46;68.20;97440.09;5003709;28;20065;-69
2021/08/13 04:57:44;;;;;;;20.20;10.48;;;;;;;21.35;68.10;97570.66;5004066;28;20443;-71
2021/08/13 05:00:11;;;;;;;14.00;11.00;;;;;;;20.58;67.92;97460.00;5002543;28;20068;-71
2021/08/13 05:02:38;;;;;;;12.90;9.73;;;;;;;21.04;67.77;97504.34;5003773;28;20611;-70
2021/08/13 05:05:06;;;;;;;11.65;9.30;;;;;;;21.48;67.27;97573.66;5001775;28;20080;-69
2021/08/13 05:07:33;;;;;;;12.48;9.73;;;;;;;20.99;67.33;97504.84;5003986;28;20061;-69
2021/08/13 05:10:06;;;;;;;10.98;9.80;;;;;;;21.52;67.13;97580.81;5003637;28;20444;-70
2021/08/13 05:12:34;;;;;;;17.80;10.82;;;;;;;20.95;67.02;97473.06;5002458;28;20073;-69
2021/08/13 05:15:00;;;;;;;13.82;9.27;;;;;;;21.20;67.71;97524.19;5004430;28;20432;-70
2021/08/13 05:17:27;;;;;;;14.57;10.15;;;;;;;21.62;66.85;97568.56;5003745;28;20568;-70
2021/08/13 05:19:54;;;;;;;13.80;9.90;;;;;;;21.78;66.57;97582.78;5002133;28;20057;-69
2021/08/13 05:22:21;;;;;;;13.25;10.23;;;;;;;21.75;66.31;97597.75;5002006;28;20500;-68
2021/08/13 05:24:48;;;;;;;13.25;10.43;;;;;;;21.73;65.84;97591.72;5001644;28;20127;-67
2021/08/13 05:27:15;;;;;;;11.32;10.10;;;;;;;21.22;65.47;97498.41;5003269;28;20065;-67
2021/08/13 05:29:41;;;;;;;15.15;11.07;;;;;;;21.20;68.46;97558.00;5002135;28;20516;-67
2021/08/13 05:32:08;;;;;;;12.55;11.25;;;;;;;21.08;68.45;97544.53;5003547;28;20050;-67
2021/08/13 05:34:35;;;;;;;14.73;11.40;;;;;;;21.40;68.90;97592.72;5002169;28;20060;-66
2021/08/13 05:37:02;;;;;;;13.52;10.60;;;;;;;21.82;67.42;97589.16;5003488;28;20065;-65
2021/08/13 05:39:29;;;;;;;19.35;11.52;;;;;;;22.07;66.38;97583.03;5002986;28;20060;-65
2021/08/13 05:41:55;;;;;;;11.85;10.40;;;;;;;22.33;65.12;97597.03;5001190;28;20134;-66
2021/08/13 05:44:22;;;;;;;14.75;11.05;;;;;;;22.56;65.17;97581.28;5003250;28;20931;-66
2021/08/13 05:46:49;;;;;;;11.48;10.30;;;;;;;22.22;63.50;97488.41;5003183;28;20057;-66
2021/08/13 05:49:16;;;;;;;9.70;8.70;;;;;;;22.68;61.53;97543.88;5001936;28;20053;-67
2021/08/13 05:51:42;;;;;;;15.75;10.18;;;;;;;22.67;62.15;97588.25;5001642;28;20050;-68
2021/08/13 05:54:09;;;;;;;13.73;9.90;;;;;;;22.30;62.81;97583.00;5004494;28;20058;-69
2021/08/13 05:56:36;;;;;;;16.83;12.80;;;;;;;22.69;61.85;97596.31;5004963;28;20069;-67
2021/08/13 05:59:03;;;;;;;14.38;10.30;;;;;;;22.96;61.00;97599.72;5005296;28;20059;-70
2021/08/13 06:01:30;;;;;;;11.68;9.10;;;;;;;23.20;59.70;97592.72;5005010;28;20141;-67
2021/08/13 06:03:57;;;;;;;13.00;9.65;;;;;;;23.20;59.92;97587.06;5005684;28;20104;-67
2021/08/13 06:06:26;;;;;;;11.52;9.40;;;;;;;23.45;59.43;97593.72;5007243;28;20065;-68
2021/08/13 06:08:53;;;;;;;12.75;10.15;;;;;;;23.50;59.60;97552.81;5006795;28;20038;-67
2021/08/13 06:11:20;;;;;;;12.10;9.90;;;;;;;23.53;57.44;97517.97;5006421;28;20440;-67
2021/08/13 06:13:47;;;;;;;10.30;9.30;;;;;;;24.24;56.18;97602.56;4999732;28;20068;-68
2021/08/13 06:16:18;;;;;;;13.18;10.75;;;;;;;24.05;55.44;97527.06;4992260;28;20501;-67
2021/08/13 06:18:45;;;;;;;10.77;9.68;;;;;;;24.69;54.70;97602.53;4988971;28;20054;-63
2021/08/13 06:21:12;;;;;;;11.13;10.07;;;;;;;24.00;52.28;97459.69;4996048;28;20050;-65
2021/08/13 06:23:39;;;;;;;10.65;9.55;;;;;;;24.52;52.01;97592.44;4995096;28;20196;-67
2021/08/13 06:26:10;;;;;;;13.40;11.35;;;;;;;24.07;55.08;97595.38;4989260;28;20414;-69
2021/08/13 06:28:38;;;;;;;13.48;10.38;;;;;;;24.50;53.21;97558.91;4988933;28;20050;-71
2021/08/13 06:31:05;;;;;;;12.45;9.25;;;;;;;24.42;51.95;97559.59;4993009;28;20046;-65
2021/08/13 06:33:32;;;;;;;10.40;9.10;;;;;;;24.03;51.34;97458.78;4993737;28;20369;-70
2021/08/13 06:35:59;;;;;;;16.85;10.57;;;;;;;24.44;52.78;97557.88;4986495;28;20523;-71
2021/08/13 06:38:26;;;;;;;13.80;10.82;;;;;;;24.92;52.48;97593.72;4985476;28;20058;-64
2021/08/13 06:40:52;;;;;;;16.52;10.10;;;;;;;25.04;51.85;97596.56;4995941;28;20049;-65
2021/08/13 06:43:19;;;;;;;12.88;10.85;;;;;;;25.41;50.31;97592.16;5006383;28;20049;-66
2021/08/13 06:45:46;;;;;;;10.02;9.13;;;;;;;24.78;49.46;97487.25;4999975;28;20057;-71
2021/08/13 06:48:13;;;;;;;11.18;9.27;;;;;;;25.73;49.35;97585.41;4993626;28;20054;-67
2021/08/13 06:50:41;;;;;;;10.93;9.63;;;;;;;26.02;49.67;97591.75;4984610;28;20592;-64
2021/08/13 06:53:07;;;;;;;13.07;10.52;;;;;;;25.83;50.35;97578.59;4995559;28;20062;-63
2021/08/13 06:55:34;;;;;;;11.30;10.23;;;;;;;26.12;50.04;97567.81;5003730;28;20057;-64
2021/08/13 06:58:03;;;;;;;17.25;12.55;;;;;;;25.52;51.52;97546.41;5004308;28;20053;-63
2021/08/13 07:00:30;;;;;;;12.68;10.27;;;;;;;25.89;51.98;97607.97;5003449;28;20064;-63
2021/08/13 07:02:56;;;;;;;11.68;10.43;;;;;;;26.33;51.93;97596.28;5005002;28;20575;-63
2021/08/13 07:05:25;;;;;;;13.23;10.70;;;;;;;26.02;50.64;97564.13;5004912;28;20112;-65
2021/08/13 07:07:52;;;;;;;11.48;10.20;;;;;;;26.18;50.56;97589.50;5004882;28;20160;-63
2021/08/13 07:10:19;;;;;;;11.27;9.77;;;;;;;26.46;49.75;97593.38;4997684;28;20073;-63
2021/08/13 07:12:46;;;;;;;11.45;10.25;;;;;;;26.28;51.00;97594.03;5002752;28;20066;-63
2021/08/13 07:15:14;;;;;;;12.15;10.45;;;;;;;26.43;51.12;97591.47;4987468;28;20530;-67
2021/08/13 07:17:41;;;;;;;13.05;11.70;;;;;;;26.78;50.13;97558.84;4995074;28;20135;-65
2021/08/13 07:20:09;;;;;;;13.25;10.88;;;;;;;25.74;51.27;97553.72;5007423;28;20447;-62
2021/08/13 07:22:36;;;;;;;14.05;10.68;;;;;;;25.61;51.52;97515.31;4986255;28;20086;-62
2021/08/13 07:25:04;;;;;;;20.23;12.05;;;;;;;25.81;51.72;97581.09;4985984;28;20054;-63
2021/08/13 07:27:33;;;;;;;11.40;10.30;;;;;;;25.99;51.44;97575.56;4994877;28;20142;-67
2021/08/13 07:30:00;;;;;;;18.20;11.05;;;;;;;26.37;50.62;97573.38;4990669;28;20089;-63
2021/08/13 07:32:27;;;;;;;10.90;10.00;;;;;;;26.38;50.62;97581.44;5002022;28;20049;-61
2021/08/13 07:34:54;;;;;;;12.60;10.25;;;;;;;25.77;50.09;97430.75;5004655;28;20049;-64
2021/08/13 07:37:21;;;;;;;15.10;11.70;;;;;;;27.12;49.75;97578.63;5004331;28;20050;-69
2021/08/13 07:39:48;;;;;;;18.13;10.40;;;;;;;26.92;49.35;97572.50;5005039;28;20046;-70
2021/08/13 07:42:16;;;;;;;14.98;11.35;;;;;;;27.15;49.50;97571.22;5005038;28;20136;-65
2021/08/13 07:44:44;;;;;;;12.90;10.80;;;;;;;27.41;48.82;97573.41;4994985;28;20060;-62
2021/08/13 07:47:12;;;;;;;24.70;13.45;;;;;;;27.52;47.99;97562.34;4987274;28;20116;-66
2021/08/13 07:49:39;;;;;;;17.08;11.05;;;;;;;27.84;47.69;97584.59;4996020;28;20058;-67
2021/08/13 07:52:06;;;;;;;12.23;11.02;;;;;;;27.63;47.22;97528.53;4983390;28;20457;-63
2021/08/13 07:54:39;;;;;;;12.43;11.32;;;;;;;28.20;46.99;97563.91;4992073;28;20580;-64
2021/08/13 07:57:16;;;;;;;10.48;9.68;;;;;;;27.98;46.92;97566.09;5001157;28;20136;-64
2021/08/13 07:59:43;;;;;;;11.93;10.80;;;;;;;28.09;47.10;97567.25;4989193;28;20065;-65
2021/08/13 08:02:11;;;;;;;11.25;10.15;;;;;;;27.97;45.73;97502.66;4995100;28;20045;-63
2021/08/13 08:04:38;;;;;;;12.45;11.25;;;;;;;27.41;45.77;97368.47;5000007;28;20054;-70
2021/08/13 08:07:05;;;;;;;15.05;11.75;;;;;;;28.09;46.11;97555.84;4993351;28;20054;-66
2021/08/13 08:09:32;;;;;;;13.23;10.65;;;;;;;27.65;45.90;97494.69;4997668;28;20092;-67
2021/08/13 08:11:58;;;;;;;12.15;11.00;;;;;;;28.08;44.94;97574.22;4990739;28;20060;-67
2021/08/13 08:14:25;;;;;;;11.60;10.45;;;;;;;27.94;46.17;97540.66;4992157;28;20529;-72
2021/08/13 08:16:55;;;;;;;10.90;9.80;;;;;;;28.35;44.61;97566.91;4985499;28;20054;-69
2021/08/13 08:19:22;;;;;;;13.77;10.73;;;;;;;28.29;43.61;97537.47;5002488;28;20077;-65
2021/08/13 08:21:49;;;;;;;13.85;12.43;;;;;;;27.69;40.80;97441.25;5001430;28;20057;-66
2021/08/13 08:24:16;;;;;;;9.05;8.25;;;;;;;28.30;42.41;97570.41;4985584;28;20648;-63
2021/08/13 08:26:42;;;;;;;11.45;9.50;;;;;;;27.11;43.07;97394.19;4986133;28;20061;-63
2021/08/13 08:29:09;;;;;;;13.18;11.10;;;;;;;27.96;44.17;97540.94;4984160;28;20132;-69
2021/08/13 08:31:36;;;;;;;11.65;10.65;;;;;;;28.44;42.96;97512.78;4983549;28;20062;-69
2021/08/13 08:34:03;;;;;;;15.07;10.85;;;;;;;28.99;42.23;97571.28;4982863;28;20203;-62
2021/08/13 08:36:33;;;;;;;10.20;9.25;;;;;;;28.26;41.73;97485.09;4983715;28;20526;-64
2021/08/13 08:39:01;;;;;;;10.13;9.13;;;;;;;27.55;41.63;97436.16;4989654;28;20054;-64
2021/08/13 08:41:29;;;;;;;12.45;10.45;;;;;;;28.29;40.11;97483.31;4989677;28;20251;-67
2021/08/13 08:43:56;;;;;;;9.80;8.90;;;;;;;28.88;40.31;97562.44;4991485;28;20054;-62
2021/08/13 08:46:24;;;;;;;13.70;9.90;;;;;;;28.93;40.54;97567.47;4987586;28;20058;-65
2021/08/13 08:48:54;;;;;;;10.40;9.55;;;;;;;28.80;41.27;97566.91;5000730;28;20140;-61
2021/08/13 08:51:21;;;;;;;11.50;10.25;;;;;;;28.78;41.27;97561.69;5003150;28;20046;-60
2021/08/13 08:53:56;;;;;;;10.60;9.57;;;;;;;28.94;41.12;97557.66;4999939;28;20054;-63
2021/08/13 08:56:25;;;;;;;10.13;9.20;;;;;;;29.02;39.86;97556.06;4989986;28;20057;-62
2021/08/13 08:58:53;;;;;;;11.25;10.25;;;;;;;27.37;40.18;97362.16;4982892;28;20058;-67
2021/08/13 09:01:21;;;;;;;15.32;9.93;;;;;;;28.85;40.14;97567.03;4982324;28;20056;-64
2021/08/13 09:03:49;;;;;;;11.90;9.88;;;;;;;29.19;39.99;97565.84;4987160;28;20263;-65
2021/08/13 09:06:15;;;;;;;11.88;10.60;;;;;;;28.58;40.42;97478.69;5001086;28;20077;-62
2021/08/13 09:08:43;;;;;;;10.77;9.73;;;;;;;28.83;40.21;97534.56;5010658;28;20067;-67
2021/08/13 09:11:10;;;;;;;10.23;9.40;;;;;;;28.78;40.12;97569.44;5006221;28;20112;-65
2021/08/13 09:13:38;;;;;;;13.90;10.52;;;;;;;29.17;38.95;97537.00;5001234;28;20137;-65
2021/08/13 09:16:14;;;;;;;11.75;9.85;;;;;;;29.88;38.30;97563.59;5003285;28;20093;-67
2021/08/13 09:18:43;;;;;;;12.25;10.60;;;;;;;29.93;38.26;97531.50;4997966;28;20497;-68
2021/08/13 09:21:19;;;;;;;14.50;11.95;;;;;;;29.99;38.12;97563.84;5001486;28;20076;-71
2021/08/13 09:23:47;;;;;;;13.25;10.65;;;;;;;29.86;37.92;97562.53;5003057;28;20058;-70
2021/08/13 09:26:20;;;;;;;11.30;10.35;;;;;;;29.86;37.36;97560.44;5000078;28;20059;-65
2021/08/13 09:28:50;;;;;;;11.80;10.60;;;;;;;30.24;36.92;97551.94;4992143;28;20509;-69
2021/08/13 09:31:23;;;;;;;25.33;17.88;;;;;;;29.91;36.52;97499.75;4996091;28;20050;-65
2021/08/13 09:34:05;;;;;;;11.90;9.97;;;;;;;29.88;36.21;97451.38;5005920;28;20077;-66
2021/08/13 09:36:34;;;;;;;14.60;9.90;;;;;;;30.75;36.05;97551.63;4996404;28;20490;-66
2021/08/13 09:39:10;;;;;;;13.18;11.82;;;;;;;30.79;36.58;97553.03;4990352;28;20053;-67
2021/08/13 09:41:52;;;;;;;14.55;13.02;;;;;;;30.69;36.77;97548.66;4992006;28;20046;-64
2021/08/13 09:44:33;;;;;;;12.43;11.32;;;;;;;30.17;36.30;97506.56;5002135;28;20497;-65
2021/08/13 09:47:02;;;;;;;11.07;10.05;;;;;;;30.29;36.21;97547.59;4989095;28;20054;-69
2021/08/13 09:49:31;;;;;;;11.35;10.25;;;;;;;29.34;37.71;97518.19;5006665;28;20607;-70
2021/08/13 09:52:26;;;;;;;13.13;11.88;;;;;;;29.51;38.05;97553.66;5006537;28;20060;-67
2021/08/13 09:55:14;;;;;;;12.15;11.15;;;;;;;29.26;38.31;97551.25;4986531;28;20062;-67
2021/08/13 09:57:45;;;;;;;13.40;12.20;;;;;;;29.28;38.05;97555.19;4985953;28;20058;-63
2021/08/13 10:00:15;;;;;;;12.77;11.57;;;;;;;29.14;37.66;97517.97;4987426;28;20336;-66
2021/08/13 10:02:44;;;;;;;12.68;11.60;;;;;;;29.86;36.92;97562.53;4987059;28;20058;-69
2021/08/13 10:05:27;;;;;;;14.60;11.57;;;;;;;30.68;35.28;97532.75;4986784;28;20053;-69
2021/08/13 10:07:56;;;;;;;11.32;10.25;;;;;;;30.79;35.36;97558.75;4995099;28;20136;-66
2021/08/13 10:10:25;;;;;;;9.50;8.80;;;;;;;29.85;36.04;97487.44;4994616;28;20480;-67
2021/08/13 10:12:53;;;;;;;11.10;10.18;;;;;;;30.62;35.07;97571.91;5002410;28;20130;-68
2021/08/13 10:15:31;;;;;;;17.33;14.57;;;;;;;30.82;35.04;97551.25;5006260;28;20133;-68
2021/08/13 10:18:01;;;;;;;12.63;11.65;;;;;;;31.31;34.80;97554.22;4994884;28;20115;-70
2021/08/13 10:20:30;;;;;;;10.73;9.88;;;;;;;31.27;33.56;97461.19;5001702;28;20057;-69
2021/08/13 10:22:57;;;;;;;11.55;10.38;;;;;;;32.23;32.51;97550.34;4987176;28;20059;-62
2021/08/13 10:25:24;;;;;;;11.50;10.50;;;;;;;31.91;33.78;97550.72;4989515;28;20074;-67
2021/08/13 10:27:53;;;;;;;11.80;10.75;;;;;;;32.15;33.42;97496.81;4985037;28;20142;-64
2021/08/13 10:30:22;;;;;;;11.48;10.68;;;;;;;32.55;32.66;97536.91;4986636;28;20113;-65
2021/08/13 10:32:51;;;;;;;11.85;10.75;;;;;;;32.00;32.81;97468.22;4985089;28;20156;-65
2021/08/13 10:35:18;;;;;;;11.88;10.82;;;;;;;32.38;31.63;97492.91;4985025;28;20457;-64
2021/08/13 10:37:45;;;;;;;11.52;10.52;;;;;;;31.99;32.76;97468.72;4985960;28;20080;-66
2021/08/13 10:40:13;;;;;;;18.23;15.35;;;;;;;31.44;32.01;97298.97;4984331;28;20048;-71
2021/08/13 10:42:44;;;;;;;12.43;11.32;;;;;;;32.15;31.99;97382.09;4984929;28;20050;-63
2021/08/13 10:45:20;;;;;;;15.07;13.70;;;;;;;32.59;31.60;97405.50;4997384;28;20050;-67
2021/08/13 10:47:55;;;;;;;12.73;11.73;;;;;;;33.70;30.88;97528.53;4985905;28;20064;-69
2021/08/13 10:50:23;;;;;;;11.70;10.73;;;;;;;33.75;30.59;97499.06;4984327;28;20780;-69
2021/08/13 10:52:50;;;;;;;10.98;10.00;;;;;;;32.98;29.77;97420.16;4984320;28;20058;-69
2021/08/13 10:55:40;;;;;;;10.82;10.02;;;;;;;32.78;30.96;97527.25;4986680;28;20090;-67
2021/08/13 10:58:06;;;;;;;13.18;12.02;;;;;;;32.17;32.24;97531.47;5004955;28;20077;-66
2021/08/13 11:00:58;;;;;;;11.00;10.13;;;;;;;32.61;31.05;97523.44;4990606;28;20125;-68
2021/08/13 11:03:25;;;;;;;11.70;10.73;;;;;;;31.82;32.25;97530.75;4999263;28;20488;-65
2021/08/13 11:05:53;;;;;;;11.65;10.60;;;;;;;31.78;31.16;97421.25;4995277;28;20052;-70
2021/08/13 11:08:21;;;;;;;13.98;12.77;;;;;;;32.66;30.94;97502.59;4986978;28;20700;-66
2021/08/13 11:10:48;;;;;;;11.65;10.75;;;;;;;32.50;30.85;97520.41;4996185;28;20104;-69
2021/08/13 11:13:19;;;;;;;12.18;11.07;;;;;;;32.62;31.17;97484.03;5000646;28;20050;-68
2021/08/13 11:15:48;;;;;;;15.45;14.05;;;;;;;32.21;31.68;97403.03;4997611;28;20117;-68
2021/08/13 11:18:54;;;;;;;12.20;10.65;;;;;;;33.84;30.21;97517.38;4991653;28;20062;-66
2021/08/13 11:21:34;;;;;;;11.57;10.57;;;;;;;34.34;29.57;97509.78;4997243;28;20580;-70
2021/08/13 11:24:04;;;;;;;11.27;10.40;;;;;;;34.72;29.11;97503.38;5004904;28;20050;-67
2021/08/13 11:26:49;;;;;;;12.00;10.90;;;;;;;34.82;29.02;97507.56;4994848;28;20054;-69
2021/08/13 11:29:34;;;;;;;11.98;10.70;;;;;;;34.95;28.19;97505.78;5002361;28;20054;-67